createdAt,value
2022-10-25T00:00:15.387Z,94225.38
2022-10-25T00:01:18.405Z,94206.13
2022-10-25T00:02:17.734Z,94214.75
2022-10-25T00:03:14.519Z,94218.22
2022-10-25T00:04:11.298Z,94221.16
2022-10-25T00:05:11.679Z,94143.22
2022-10-25T00:06:12.354Z,94219.94
2022-10-25T00:07:09.379Z,94219.94
2022-10-25T00:08:06.477Z,94220.34
2022-10-25T00:09:03.469Z,94225.84
2022-10-25T00:10:00.047Z,94218.31
2022-10-25T00:10:56.639Z,94185.88
2022-10-25T00:11:53.238Z,94189.19
2022-10-25T00:12:50.174Z,94203.28
2022-10-25T00:13:50.031Z,94223.19
2022-10-25T00:14:46.805Z,94223.28
2022-10-25T00:15:43.549Z,94218.78
2022-10-25T00:16:40.134Z,94218.66
2022-10-25T00:17:36.749Z,94218.13
2022-10-25T00:18:33.610Z,94196.03
2022-10-25T00:19:30.163Z,94221.97
2022-10-25T00:20:26.848Z,94227.91
2022-10-25T00:21:23.959Z,94158.66
2022-10-25T00:22:20.653Z,94223.56
2022-10-25T00:23:17.252Z,94218.72
2022-10-25T00:24:14.725Z,94161.59
2022-10-25T00:25:11.695Z,94216.00
2022-10-25T00:26:10.053Z,94220.69
2022-10-25T00:27:06.742Z,94223.03
2022-10-25T00:28:03.326Z,94219.16
2022-10-25T00:28:59.976Z,94212.97
2022-10-25T00:29:56.582Z,94206.31
2022-10-25T00:31:00.784Z,94217.28
2022-10-25T00:31:57.351Z,94210.16
2022-10-25T00:32:54.538Z,94168.34
2022-10-25T00:33:51.722Z,94191.78
2022-10-25T00:34:48.438Z,94208.94
2022-10-25T00:35:44.987Z,94208.84
2022-10-25T00:36:41.535Z,94197.03
2022-10-25T00:37:38.117Z,94188.25
2022-10-25T00:38:35.471Z,94198.94
2022-10-25T00:39:32.014Z,94207.31
2022-10-25T00:40:28.597Z,94173.28
2022-10-25T00:41:29.181Z,94204.03
2022-10-25T00:42:27.540Z,94203.44
2022-10-25T00:43:37.937Z,94203.66
2022-10-25T00:44:40.502Z,94203.03
2022-10-25T00:45:37.729Z,94159.16
2022-10-25T00:46:34.347Z,94202.81
2022-10-25T00:47:39.868Z,94195.94
2022-10-25T00:48:36.707Z,94197.59
2022-10-25T00:49:34.506Z,94153.66
2022-10-25T00:50:50.808Z,94193.13
2022-10-25T00:52:07.466Z,94198.94
2022-10-25T00:53:13.056Z,94197.72
2022-10-25T00:54:13.058Z,94196.09
2022-10-25T00:55:11.035Z,94193.16
2022-10-25T00:56:19.714Z,94192.97
2022-10-25T00:57:21.784Z,94190.91
2022-10-25T00:58:22.365Z,94190.47
2022-10-25T00:59:24.534Z,94187.28
2022-10-25T01:00:22.074Z,94164.41
2022-10-25T01:01:19.108Z,94159.38
2022-10-25T01:02:18.342Z,94186.22
2022-10-25T01:03:17.802Z,94184.50
2022-10-25T01:04:17.336Z,94189.28
2022-10-25T01:05:15.404Z,94192.06
2022-10-25T01:06:23.358Z,94195.53
2022-10-25T01:07:20.027Z,94165.97
2022-10-25T01:08:20.065Z,94195.78
2022-10-25T01:09:23.857Z,94196.13
2022-10-25T01:10:20.555Z,94203.34
2022-10-25T01:12:18.904Z,94169.66
2022-10-25T01:13:15.756Z,94177.13
2022-10-25T01:14:15.310Z,94186.31
2022-10-25T01:15:12.432Z,94194.44
2022-10-25T01:16:11.757Z,94201.19
2022-10-25T01:17:20.021Z,94192.47
2022-10-25T01:18:27.784Z,94191.84
2022-10-25T01:19:36.498Z,94197.50
2022-10-25T01:21:12.107Z,94199.97
2022-10-25T01:22:35.062Z,94082.75
2022-10-25T01:23:34.429Z,94193.47
2022-10-25T01:24:49.020Z,94187.63
2022-10-25T01:26:03.803Z,94190.03
2022-10-25T01:27:29.258Z,94188.41
2022-10-25T01:29:03.661Z,94193.41
2022-10-25T01:30:08.743Z,94195.22
2022-10-25T01:31:40.820Z,94189.81
2022-10-25T01:32:49.146Z,94145.78
2022-10-25T01:34:03.971Z,94189.69
2022-10-25T01:35:16.288Z,94191.41
2022-10-25T01:36:37.077Z,94187.41
2022-10-25T01:37:51.997Z,94191.34
2022-10-25T01:38:57.696Z,94181.25
2022-10-25T01:40:00.544Z,94188.31
2022-10-25T01:41:04.237Z,94180.84
2022-10-25T01:42:14.219Z,94177.47
2022-10-25T01:43:17.431Z,94191.69
2022-10-25T01:44:28.937Z,94179.88
2022-10-25T01:45:34.952Z,94182.72
2022-10-25T01:46:40.722Z,94183.28
2022-10-25T01:47:58.808Z,94180.31
2022-10-25T01:49:13.274Z,94180.53
2022-10-25T01:50:31.663Z,94175.06
2022-10-25T01:51:31.503Z,94175.94
2022-10-25T01:52:28.454Z,94177.06
2022-10-25T01:53:25.049Z,94160.03
2022-10-25T01:54:27.548Z,94180.34
2022-10-25T01:55:50.235Z,94173.06
2022-10-25T01:57:11.699Z,94177.47
2022-10-25T01:58:17.540Z,94174.69
2022-10-25T01:59:38.862Z,94175.38
2022-10-25T02:00:48.206Z,94176.56
2022-10-25T02:02:10.653Z,94177.75
2022-10-25T02:03:31.151Z,94179.91
2022-10-25T02:04:54.982Z,94179.59
2022-10-25T02:06:29.908Z,94171.34
2022-10-25T02:07:35.475Z,94166.28
2022-10-25T02:08:46.845Z,94159.41
2022-10-25T02:09:52.486Z,94167.25
2022-10-25T02:10:59.521Z,94169.31
2022-10-25T02:11:59.447Z,94163.19
2022-10-25T02:13:18.268Z,94168.59
2022-10-25T02:14:27.074Z,94161.72
2022-10-25T02:15:50.971Z,94133.72
2022-10-25T02:16:56.545Z,94166.28
2022-10-25T02:17:59.181Z,94155.59
2022-10-25T02:19:03.068Z,94169.41
2022-10-25T02:20:02.781Z,94139.53
2022-10-25T02:21:01.638Z,94162.66
2022-10-25T02:22:01.374Z,94137.22
2022-10-25T02:23:01.154Z,94150.13
2022-10-25T02:24:00.156Z,94125.22
2022-10-25T02:24:58.205Z,94160.53
2022-10-25T02:25:55.499Z,94162.78
2022-10-25T02:26:54.443Z,94161.19
2022-10-25T02:27:53.843Z,94147.84
2022-10-25T02:28:51.366Z,94090.31
2022-10-25T02:29:49.348Z,94134.88
2022-10-25T02:30:45.944Z,94160.94
2022-10-25T02:31:43.902Z,94163.34
2022-10-25T02:32:40.521Z,94168.25
2022-10-25T02:33:37.998Z,94125.53
2022-10-25T02:34:34.670Z,94164.88
2022-10-25T02:35:31.432Z,94164.91
2022-10-25T02:36:28.009Z,94163.75
2022-10-25T02:37:24.649Z,94161.38
2022-10-25T02:38:21.248Z,94155.72
2022-10-25T02:39:19.837Z,94161.59
2022-10-25T02:40:16.622Z,94135.41
2022-10-25T02:41:13.825Z,94165.66
2022-10-25T02:42:10.424Z,94159.53
2022-10-25T02:43:06.989Z,94162.53
2022-10-25T02:44:03.748Z,94162.53
2022-10-25T02:45:00.325Z,94166.78
2022-10-25T02:45:56.883Z,94168.88
2022-10-25T02:46:53.547Z,94164.66
2022-10-25T02:47:50.236Z,94150.63
2022-10-25T02:48:47.736Z,94103.19
2022-10-25T02:49:44.396Z,94145.16
2022-10-25T02:50:40.942Z,94160.91
2022-10-25T02:51:37.860Z,94165.75
2022-10-25T02:52:34.522Z,94162.22
2022-10-25T02:53:31.244Z,94128.06
2022-10-25T02:54:27.859Z,94151.63
2022-10-25T02:55:24.457Z,94140.50
2022-10-25T02:56:22.430Z,94169.97
2022-10-25T02:57:19.002Z,94155.53
2022-10-25T02:58:15.562Z,94161.66
2022-10-25T02:59:12.944Z,94135.31
2022-10-25T03:00:10.362Z,94160.44
2022-10-25T03:01:07.907Z,94158.13
2022-10-25T03:02:04.567Z,94128.53
2022-10-25T03:03:01.110Z,94152.53
2022-10-25T03:03:57.795Z,94127.00
2022-10-25T03:04:54.365Z,94162.13
2022-10-25T03:05:51.568Z,94161.22
2022-10-25T03:06:48.193Z,94154.22
2022-10-25T03:07:44.786Z,94166.78
2022-10-25T03:08:42.924Z,94165.31
2022-10-25T03:09:39.537Z,94126.78
2022-10-25T03:10:38.992Z,94124.75
2022-10-25T03:11:35.566Z,94161.03
2022-10-25T03:12:32.150Z,94167.88
2022-10-25T03:13:28.712Z,94149.88
2022-10-25T03:14:25.702Z,94152.09
2022-10-25T03:15:22.407Z,94149.78
2022-10-25T03:16:18.995Z,94150.19
2022-10-25T03:17:15.620Z,94145.75
2022-10-25T03:18:13.438Z,94153.09
2022-10-25T03:19:10.028Z,94151.25
2022-10-25T03:20:07.330Z,94152.13
2022-10-25T03:21:05.474Z,94118.63
2022-10-25T03:22:02.013Z,94149.84
2022-10-25T03:22:58.643Z,94142.63
2022-10-25T03:23:55.261Z,94150.97
2022-10-25T03:24:51.832Z,94140.19
2022-10-25T03:25:55.935Z,94139.81
2022-10-25T03:26:52.556Z,94145.72
2022-10-25T03:27:49.287Z,94143.50
2022-10-25T03:28:46.144Z,94109.16
2022-10-25T03:29:42.750Z,94140.84
2022-10-25T03:30:42.521Z,94138.88
2022-10-25T03:31:40.087Z,94138.63
2022-10-25T03:32:36.979Z,94146.28
2022-10-25T03:33:33.613Z,94147.94
2022-10-25T03:34:30.169Z,94141.28
2022-10-25T03:35:26.885Z,94125.09
2022-10-25T03:36:23.504Z,94148.19
2022-10-25T03:37:20.047Z,94122.88
2022-10-25T03:38:16.794Z,94149.44
2022-10-25T03:39:13.498Z,94150.34
2022-10-25T03:40:10.622Z,94140.53
2022-10-25T03:41:07.281Z,94146.22
2022-10-25T03:42:04.020Z,94139.53
2022-10-25T03:43:00.647Z,94145.56
2022-10-25T03:43:57.222Z,94152.56
2022-10-25T03:44:53.984Z,94143.66
2022-10-25T03:45:50.543Z,94137.88
2022-10-25T03:46:47.178Z,94146.66
2022-10-25T03:47:44.565Z,94134.78
2022-10-25T03:48:41.500Z,94143.97
2022-10-25T03:49:38.119Z,94124.97
2022-10-25T03:50:36.089Z,94111.44
2022-10-25T03:51:32.762Z,94144.00
2022-10-25T03:52:29.340Z,94142.09
2022-10-25T03:53:25.892Z,94149.00
2022-10-25T03:54:24.413Z,94152.06
2022-10-25T03:55:23.532Z,94141.97
2022-10-25T03:56:20.147Z,94149.56
2022-10-25T03:57:17.039Z,94106.19
2022-10-25T03:58:13.782Z,94153.44
2022-10-25T03:59:10.367Z,94135.00
2022-10-25T04:00:07.642Z,94112.31
2022-10-25T04:01:04.321Z,94131.66
2022-10-25T04:02:01.549Z,94140.75
2022-10-25T04:03:02.016Z,94114.53
2022-10-25T04:03:59.168Z,94116.00
2022-10-25T04:04:55.803Z,94139.66
2022-10-25T04:05:52.372Z,94143.84
2022-10-25T04:06:49.006Z,94127.53
2022-10-25T04:07:45.944Z,94144.75
2022-10-25T04:08:42.725Z,94144.97
2022-10-25T04:09:39.289Z,94124.28
2022-10-25T04:10:36.123Z,94144.53
2022-10-25T04:11:32.819Z,94144.44
2022-10-25T04:12:29.398Z,94140.66
2022-10-25T04:13:25.984Z,94146.53
2022-10-25T04:14:22.593Z,94132.66
2022-10-25T04:15:19.480Z,94144.56
2022-10-25T04:16:19.060Z,94145.66
2022-10-25T04:17:15.912Z,94136.31
2022-10-25T04:18:12.548Z,94145.19
2022-10-25T04:19:09.154Z,94143.31
2022-10-25T04:20:06.355Z,94119.44
2022-10-25T04:21:03.723Z,94146.75
2022-10-25T04:22:02.265Z,94144.56
2022-10-25T04:22:58.831Z,94132.88
2022-10-25T04:23:56.692Z,94149.97
2022-10-25T04:24:54.859Z,94126.72
2022-10-25T04:25:51.500Z,94145.72
2022-10-25T04:26:48.762Z,94150.28
2022-10-25T04:27:45.563Z,94152.03
2022-10-25T04:28:42.272Z,94148.66
2022-10-25T04:29:38.941Z,94134.63
2022-10-25T04:30:38.073Z,94160.59
2022-10-25T04:31:35.633Z,94151.06
2022-10-25T04:32:32.202Z,94126.59
2022-10-25T04:33:28.922Z,94124.25
2022-10-25T04:34:25.489Z,94134.38
2022-10-25T04:35:22.027Z,94154.50
2022-10-25T04:36:18.867Z,94147.22
2022-10-25T04:37:16.381Z,94110.22
2022-10-25T04:38:12.940Z,94150.84
2022-10-25T04:39:09.643Z,94140.84
2022-10-25T04:40:07.077Z,94132.78
2022-10-25T04:41:03.658Z,94146.19
2022-10-25T04:42:00.261Z,94143.28
2022-10-25T04:42:57.240Z,94144.84
2022-10-25T04:43:53.886Z,94149.19
2022-10-25T04:44:50.438Z,94150.09
2022-10-25T04:45:47.015Z,94148.75
2022-10-25T04:46:46.445Z,94147.44
2022-10-25T04:47:45.340Z,94132.97
2022-10-25T04:48:42.986Z,94150.09
2022-10-25T04:49:39.626Z,94152.66
2022-10-25T04:50:38.059Z,94150.84
2022-10-25T04:51:34.755Z,94112.53
2022-10-25T04:52:31.546Z,94160.09
2022-10-25T04:53:28.262Z,94150.53
2022-10-25T04:54:24.911Z,94152.66
2022-10-25T04:55:21.507Z,94149.41
2022-10-25T04:56:18.214Z,94155.16
2022-10-25T04:57:14.763Z,94152.06
2022-10-25T04:58:11.329Z,94146.59
2022-10-25T04:59:09.382Z,94149.81
2022-10-25T05:00:06.425Z,94154.78
2022-10-25T05:01:08.735Z,94120.00
2022-10-25T05:02:05.697Z,94152.31
2022-10-25T05:03:02.333Z,94154.72
2022-10-25T05:03:58.910Z,94148.63
2022-10-25T05:04:55.501Z,94153.78
2022-10-25T05:05:52.164Z,94150.16
2022-10-25T05:06:48.715Z,94153.13
2022-10-25T05:07:45.301Z,94145.56
2022-10-25T05:08:46.995Z,94155.09
2022-10-25T05:09:46.593Z,94161.34
2022-10-25T05:10:44.415Z,94161.56
2022-10-25T05:11:40.989Z,94165.19
2022-10-25T05:12:38.053Z,94161.81
2022-10-25T05:13:38.821Z,94155.94
2022-10-25T05:14:35.442Z,94152.69
2022-10-25T05:15:32.129Z,94107.72
2022-10-25T05:16:28.820Z,94163.13
2022-10-25T05:17:25.441Z,94171.78
2022-10-25T05:18:22.222Z,94173.78
2022-10-25T05:19:18.748Z,94167.47
2022-10-25T05:20:15.430Z,94166.06
2022-10-25T05:21:13.659Z,94163.25
2022-10-25T05:22:10.457Z,94131.53
2022-10-25T05:23:06.979Z,94170.38
2022-10-25T05:24:04.139Z,94173.56
2022-10-25T05:25:00.728Z,94178.34
2022-10-25T05:26:21.195Z,94175.75
2022-10-25T05:27:18.278Z,94175.34
2022-10-25T05:28:14.899Z,94174.25
2022-10-25T05:29:12.997Z,94182.34
2022-10-25T05:30:10.738Z,94183.63
2022-10-25T05:31:16.409Z,94186.69
2022-10-25T05:32:13.260Z,94182.28
2022-10-25T05:33:10.434Z,94182.72
2022-10-25T05:34:07.678Z,94191.28
2022-10-25T05:35:04.690Z,94146.16
2022-10-25T05:36:03.214Z,94191.56
2022-10-25T05:36:59.887Z,94196.44
2022-10-25T05:37:56.452Z,94204.13
2022-10-25T05:38:53.004Z,94167.78
2022-10-25T05:39:49.778Z,94193.88
2022-10-25T05:40:53.773Z,94188.34
2022-10-25T05:41:50.914Z,94195.34
2022-10-25T05:42:47.695Z,94196.91
2022-10-25T05:43:45.579Z,94200.59
2022-10-25T05:44:42.228Z,94204.91
2022-10-25T05:45:38.833Z,94203.03
2022-10-25T05:46:35.746Z,94117.56
2022-10-25T05:47:32.310Z,94172.31
2022-10-25T05:48:28.926Z,94200.69
2022-10-25T05:49:25.495Z,94203.25
2022-10-25T05:50:22.075Z,94202.47
2022-10-25T05:51:34.700Z,94205.91
2022-10-25T05:52:32.609Z,94207.56
2022-10-25T05:53:29.210Z,94210.53
2022-10-25T05:54:25.810Z,94205.16
2022-10-25T05:55:22.366Z,94206.72
2022-10-25T05:56:20.859Z,94210.59
2022-10-25T05:57:17.501Z,94211.59
2022-10-25T05:58:14.035Z,94199.09
2022-10-25T05:59:14.735Z,94209.28
2022-10-25T06:00:12.127Z,94212.41
2022-10-25T06:01:16.953Z,94191.31
2022-10-25T06:02:13.675Z,94217.06
2022-10-25T06:03:10.309Z,94214.59
2022-10-25T06:04:07.671Z,94216.69
2022-10-25T06:05:04.472Z,94218.59
2022-10-25T06:06:02.625Z,94207.03
2022-10-25T06:06:59.262Z,94213.53
2022-10-25T06:07:55.908Z,94195.56
2022-10-25T06:08:57.532Z,94195.31
2022-10-25T06:09:54.139Z,94221.75
2022-10-25T06:10:50.734Z,94221.16
2022-10-25T06:11:47.298Z,94219.78
2022-10-25T06:12:43.923Z,94224.00
2022-10-25T06:13:40.948Z,94216.41
2022-10-25T06:14:37.503Z,94230.03
2022-10-25T06:15:34.092Z,94223.81
2022-10-25T06:16:31.097Z,94223.63
2022-10-25T06:17:27.648Z,94229.59
2022-10-25T06:18:24.741Z,94234.25
2022-10-25T06:19:21.339Z,94229.09
2022-10-25T06:20:17.896Z,94218.78
2022-10-25T06:21:17.646Z,94195.75
2022-10-25T06:22:14.195Z,94227.94
2022-10-25T06:23:11.262Z,94206.72
2022-10-25T06:24:09.318Z,94240.03
2022-10-25T06:25:06.421Z,94231.06
2022-10-25T06:26:06.825Z,94230.59
2022-10-25T06:27:03.488Z,94194.06
2022-10-25T06:28:00.059Z,94217.00
2022-10-25T06:28:58.907Z,94232.53
2022-10-25T06:29:55.456Z,94230.63
2022-10-25T06:30:52.004Z,94232.22
2022-10-25T06:31:49.689Z,94231.97
2022-10-25T06:32:46.505Z,94243.44
2022-10-25T06:33:43.850Z,94233.00
2022-10-25T06:34:40.486Z,94234.88
2022-10-25T06:35:37.068Z,94234.16
2022-10-25T06:36:33.775Z,94237.19
2022-10-25T06:37:30.544Z,94223.56
2022-10-25T06:38:27.780Z,94214.66
2022-10-25T06:39:24.360Z,94238.28
2022-10-25T06:40:23.524Z,94220.50
2022-10-25T06:41:22.896Z,94224.44
2022-10-25T06:42:19.515Z,94239.81
2022-10-25T06:43:16.137Z,94232.53
2022-10-25T06:44:12.749Z,94239.53
2022-10-25T06:45:09.736Z,94234.38
2022-10-25T06:46:11.423Z,94241.38
2022-10-25T06:47:23.155Z,94230.16
2022-10-25T06:48:20.237Z,94236.78
2022-10-25T06:49:16.788Z,94239.41
2022-10-25T06:50:13.443Z,94233.94
2022-10-25T06:51:10.002Z,94199.38
2022-10-25T06:52:06.635Z,94234.13
2022-10-25T06:53:03.198Z,94229.91
2022-10-25T06:54:01.499Z,94230.44
2022-10-25T06:54:58.077Z,94218.72
2022-10-25T06:55:54.639Z,94233.06
2022-10-25T06:56:51.185Z,94221.84
2022-10-25T06:57:47.726Z,94228.59
2022-10-25T06:58:44.785Z,94231.03
2022-10-25T06:59:41.365Z,94225.78
2022-10-25T07:00:37.935Z,94235.66
2022-10-25T07:01:34.681Z,94228.03
2022-10-25T07:02:31.281Z,94232.56
2022-10-25T07:03:30.787Z,94228.03
2022-10-25T07:04:27.327Z,94228.47
2022-10-25T07:05:24.357Z,94224.53
2022-10-25T07:06:29.527Z,94231.16
2022-10-25T07:07:26.254Z,94221.91
2022-10-25T07:08:23.145Z,94218.22
2022-10-25T07:09:19.740Z,94220.81
2022-10-25T07:10:16.514Z,94219.66
2022-10-25T07:11:18.438Z,94220.94
2022-10-25T07:12:14.991Z,94222.22
2022-10-25T07:13:11.548Z,94219.09
2022-10-25T07:14:09.324Z,94211.63
2022-10-25T07:15:06.661Z,94221.72
2022-10-25T07:16:05.050Z,94222.03
2022-10-25T07:17:01.623Z,94228.19
2022-10-25T07:17:58.235Z,94216.97
2022-10-25T07:19:02.196Z,94224.13
2022-10-25T07:19:58.743Z,94217.44
2022-10-25T07:20:59.198Z,94220.13
2022-10-25T07:21:55.802Z,94219.00
2022-10-25T07:22:55.516Z,94207.34
2022-10-25T07:23:55.708Z,94219.09
2022-10-25T07:24:52.268Z,94225.84
2022-10-25T07:25:48.818Z,94215.41
2022-10-25T07:26:45.428Z,94214.09
2022-10-25T07:27:42.058Z,94219.09
2022-10-25T07:28:39.733Z,94222.88
2022-10-25T07:29:36.297Z,94225.84
2022-10-25T07:30:32.899Z,94229.56
2022-10-25T07:31:32.002Z,94212.69
2022-10-25T07:32:28.628Z,94226.59
2022-10-25T07:33:25.176Z,94228.53
2022-10-25T07:34:21.735Z,94229.63
2022-10-25T07:35:18.302Z,94220.16
2022-10-25T07:36:14.875Z,94226.66
2022-10-25T07:37:11.481Z,94233.75
2022-10-25T07:38:08.038Z,94228.06
2022-10-25T07:39:04.719Z,94216.25
2022-10-25T07:40:01.263Z,94213.63
2022-10-25T07:40:58.883Z,94225.19
2022-10-25T07:41:55.446Z,94218.47
2022-10-25T07:42:52.106Z,94233.44
2022-10-25T07:43:48.855Z,94217.59
2022-10-25T07:45:42.940Z,94224.38
2022-10-25T07:46:39.467Z,94196.34
2022-10-25T07:47:36.082Z,94216.91
2022-10-25T07:48:33.385Z,94217.81
2022-10-25T07:49:29.912Z,94216.31
2022-10-25T07:50:26.469Z,94213.13
2022-10-25T07:51:23.179Z,94191.34
2022-10-25T07:52:20.514Z,94218.94
2022-10-25T07:53:17.320Z,94220.88
2022-10-25T07:54:13.940Z,94217.38
2022-10-25T07:55:10.496Z,94215.06
2022-10-25T07:56:08.201Z,94213.22
2022-10-25T07:57:06.424Z,94197.44
2022-10-25T07:58:05.732Z,94221.19
2022-10-25T07:59:02.331Z,94221.41
2022-10-25T07:59:59.101Z,94201.09
2022-10-25T08:01:04.097Z,94180.44
2022-10-25T08:02:00.701Z,94219.81
2022-10-25T08:02:57.558Z,94220.38
2022-10-25T08:03:55.180Z,94216.38
2022-10-25T08:04:54.214Z,94221.84
2022-10-25T08:05:51.024Z,94218.63
2022-10-25T08:06:47.608Z,94216.56
2022-10-25T08:07:44.253Z,94220.88
2022-10-25T08:08:41.024Z,94191.47
2022-10-25T08:09:38.628Z,94217.38
2022-10-25T08:10:35.478Z,94219.75
2022-10-25T08:11:32.040Z,94217.13
2022-10-25T08:12:28.588Z,94211.59
2022-10-25T08:13:25.380Z,94208.72
2022-10-25T08:15:19.595Z,94215.31
2022-10-25T08:16:16.227Z,94213.16
2022-10-25T08:17:12.815Z,94216.59
2022-10-25T08:18:12.226Z,94185.03
2022-10-25T08:19:08.810Z,94211.41
2022-10-25T08:20:05.888Z,94207.63
2022-10-25T08:21:04.435Z,94203.34
2022-10-25T08:22:01.230Z,94167.59
2022-10-25T08:22:59.206Z,94179.72
2022-10-25T08:23:55.823Z,94202.19
2022-10-25T08:24:52.467Z,94211.47
2022-10-25T08:25:49.435Z,94199.94
2022-10-25T08:26:46.270Z,94206.88
2022-10-25T08:27:42.933Z,94206.16
2022-10-25T08:28:39.691Z,94200.44
2022-10-25T08:29:36.312Z,94202.34
2022-10-25T08:30:32.932Z,94201.69
2022-10-25T08:31:29.564Z,94147.19
2022-10-25T08:32:26.193Z,94193.97
2022-10-25T08:33:23.854Z,94168.94
2022-10-25T08:34:20.506Z,94195.25
2022-10-25T08:35:17.634Z,94189.75
2022-10-25T08:36:14.262Z,94191.03
2022-10-25T08:37:12.225Z,94193.00
2022-10-25T08:38:08.778Z,94193.38
2022-10-25T08:39:05.348Z,94182.59
2022-10-25T08:40:02.103Z,94197.19
2022-10-25T08:41:25.899Z,94189.84
2022-10-25T08:42:40.937Z,94199.56
2022-10-25T08:44:11.996Z,94187.22
2022-10-25T08:45:22.987Z,94189.53
2022-10-25T08:46:36.366Z,94190.25
2022-10-25T08:47:40.756Z,94184.88
2022-10-25T08:48:42.870Z,94181.44
2022-10-25T08:50:11.037Z,94177.56
2022-10-25T08:51:14.193Z,94186.41
2022-10-25T08:52:22.019Z,94184.44
2022-10-25T08:53:27.563Z,94180.53
2022-10-25T08:54:29.351Z,94183.66
2022-10-25T08:55:41.784Z,94182.56
2022-10-25T08:57:10.690Z,94132.41
2022-10-25T08:58:23.605Z,94172.19
2022-10-25T08:59:26.017Z,94191.84
2022-10-25T09:00:23.883Z,94187.22
2022-10-25T09:01:32.153Z,94182.56
2022-10-25T09:02:41.700Z,94181.81
2022-10-25T09:04:37.940Z,94141.22
2022-10-25T09:05:39.115Z,94194.94
2022-10-25T09:06:47.659Z,94184.53
2022-10-25T09:08:03.921Z,94192.25
2022-10-25T09:09:20.282Z,94188.81
2022-10-25T09:10:29.125Z,94188.38
2022-10-25T09:11:48.862Z,94183.38
2022-10-25T09:13:00.283Z,94180.69
2022-10-25T09:14:05.157Z,94123.88
2022-10-25T09:15:13.923Z,94184.50
2022-10-25T09:16:16.556Z,94188.38
2022-10-25T09:17:23.501Z,94180.88
2022-10-25T09:18:29.884Z,94159.81
2022-10-25T09:19:35.374Z,94181.84
2022-10-25T09:20:41.517Z,94177.53
2022-10-25T09:21:49.990Z,94181.06
2022-10-25T09:22:49.298Z,94188.78
2022-10-25T09:24:01.692Z,94181.06
2022-10-25T09:25:08.642Z,94188.00
2022-10-25T09:26:22.090Z,94186.44
2022-10-25T09:27:34.699Z,94174.81
2022-10-25T09:29:00.243Z,94179.75
2022-10-25T09:30:07.314Z,94176.66
2022-10-25T09:31:05.383Z,94175.84
2022-10-25T09:32:05.358Z,94175.47
2022-10-25T09:33:09.363Z,94133.31
2022-10-25T09:34:09.026Z,94125.19
2022-10-25T09:35:12.475Z,94173.13
2022-10-25T09:36:10.784Z,94169.94
2022-10-25T09:37:34.692Z,94169.00
2022-10-25T09:38:40.697Z,94161.03
2022-10-25T09:39:44.951Z,94165.66
2022-10-25T09:41:25.499Z,94162.69
2022-10-25T09:42:27.852Z,94169.13
2022-10-25T09:43:33.981Z,94150.06
2022-10-25T09:44:36.451Z,94165.75
2022-10-25T09:45:44.515Z,94153.91
2022-10-25T09:46:51.654Z,94157.19
2022-10-25T09:47:54.845Z,94159.16
2022-10-25T09:49:00.692Z,94164.06
2022-10-25T09:50:37.338Z,94156.84
2022-10-25T09:51:43.136Z,94154.56
2022-10-25T09:52:51.863Z,94157.97
2022-10-25T09:53:49.093Z,94157.53
2022-10-25T09:55:09.269Z,94120.47
2022-10-25T09:56:06.249Z,94133.78
2022-10-25T09:57:03.703Z,94153.78
2022-10-25T09:58:01.541Z,94151.03
2022-10-25T09:59:01.286Z,94149.47
2022-10-25T09:59:57.920Z,94152.84
2022-10-25T10:00:57.657Z,94145.91
2022-10-25T10:01:54.725Z,94143.78
2022-10-25T10:02:51.610Z,94145.47
2022-10-25T10:03:52.348Z,94143.97
2022-10-25T10:04:52.398Z,94132.69
2022-10-25T10:05:59.575Z,94147.13
2022-10-25T10:07:02.621Z,94133.00
2022-10-25T10:07:59.195Z,94136.28
2022-10-25T10:09:07.783Z,94143.16
2022-10-25T10:10:12.604Z,94145.31
2022-10-25T10:11:15.985Z,94132.53
2022-10-25T10:12:23.696Z,94135.63
2022-10-25T10:13:38.895Z,94135.94
2022-10-25T10:14:44.491Z,94132.34
2022-10-25T10:15:57.148Z,94139.19
2022-10-25T10:16:56.403Z,94128.97
2022-10-25T10:18:21.777Z,94122.22
2022-10-25T10:19:29.456Z,94128.38
2022-10-25T10:20:26.144Z,94127.81
2022-10-25T10:21:23.999Z,94121.06
2022-10-25T10:22:21.254Z,94123.09
2022-10-25T10:23:18.365Z,94087.16
2022-10-25T10:24:23.229Z,94124.25
2022-10-25T10:25:27.220Z,94107.09
2022-10-25T10:26:51.596Z,94112.56
2022-10-25T10:27:50.689Z,94107.91
2022-10-25T10:29:07.801Z,94106.09
2022-10-25T10:30:09.589Z,94110.66
2022-10-25T10:31:08.212Z,94093.31
2022-10-25T10:32:07.219Z,94110.34
2022-10-25T10:33:04.695Z,94103.41
2022-10-25T10:34:01.450Z,94088.88
2022-10-25T10:34:58.794Z,94107.06
2022-10-25T10:35:55.439Z,94105.13
2022-10-25T10:37:14.353Z,94102.56
2022-10-25T10:38:28.620Z,94108.50
2022-10-25T10:39:25.203Z,94108.41
2022-10-25T10:40:22.922Z,94099.50
2022-10-25T10:41:29.489Z,94078.44
2022-10-25T10:42:42.693Z,94093.06
2022-10-25T10:43:39.952Z,94098.19
2022-10-25T10:44:36.511Z,94096.72
2022-10-25T10:45:33.989Z,94060.09
2022-10-25T10:46:30.680Z,94088.38
2022-10-25T10:47:35.197Z,94054.38
2022-10-25T10:48:36.684Z,94080.88
2022-10-25T10:49:42.795Z,94086.22
2022-10-25T10:50:42.541Z,94075.28
2022-10-25T10:51:44.915Z,94082.59
2022-10-25T10:52:46.896Z,94086.72
2022-10-25T10:53:43.744Z,94090.84
2022-10-25T10:54:47.976Z,94087.22
2022-10-25T10:55:53.057Z,94070.13
2022-10-25T10:57:03.269Z,94078.84
2022-10-25T10:58:19.859Z,94082.69
2022-10-25T10:59:33.812Z,94082.78
2022-10-25T11:00:33.219Z,94082.22
2022-10-25T11:01:33.594Z,94081.19
2022-10-25T11:02:40.973Z,94076.13
2022-10-25T11:03:48.685Z,94074.47
2022-10-25T11:04:56.756Z,94046.03
2022-10-25T11:06:00.453Z,94046.75
2022-10-25T11:07:14.244Z,94070.13
2022-10-25T11:08:10.799Z,94064.94
2022-10-25T11:09:10.189Z,94061.50
2022-10-25T11:10:15.617Z,94066.63
2022-10-25T11:11:21.331Z,94067.88
2022-10-25T11:12:18.860Z,94065.47
2022-10-25T11:13:19.812Z,94062.13
2022-10-25T11:14:17.876Z,94057.00
2022-10-25T11:15:15.077Z,94033.19
2022-10-25T11:16:49.375Z,94056.38
2022-10-25T11:17:55.479Z,94057.75
2022-10-25T11:18:57.222Z,94063.97
2022-10-25T11:20:07.899Z,94052.09
2022-10-25T11:21:21.491Z,94032.00
2022-10-25T11:23:13.138Z,94057.88
2022-10-25T11:24:28.399Z,94055.34
2022-10-25T11:25:27.823Z,94054.66
2022-10-25T11:26:50.450Z,94056.69
2022-10-25T11:27:52.070Z,94052.53
2022-10-25T11:29:15.865Z,94046.09
2022-10-25T11:30:23.844Z,94029.47
2022-10-25T11:32:02.023Z,94047.56
2022-10-25T11:33:07.579Z,94047.16
2022-10-25T11:34:57.949Z,94043.47
2022-10-25T11:36:06.490Z,94033.56
2022-10-25T11:37:13.600Z,94036.50
2022-10-25T11:38:10.122Z,94036.97
2022-10-25T11:39:28.763Z,94034.78
2022-10-25T11:40:54.767Z,94002.78
2022-10-25T11:41:56.975Z,94033.88
2022-10-25T11:43:10.434Z,94027.19
2022-10-25T11:44:39.796Z,94004.81
2022-10-25T11:45:43.063Z,94022.38
2022-10-25T11:46:57.390Z,94014.28
2022-10-25T11:48:17.227Z,94026.16
2022-10-25T11:49:57.176Z,94011.38
2022-10-25T11:51:24.593Z,94018.97
2022-10-25T11:53:18.452Z,94025.19
2022-10-25T11:54:41.002Z,94011.69
2022-10-25T11:55:59.194Z,94011.59
2022-10-25T11:57:14.074Z,94009.81
2022-10-25T11:58:46.156Z,94014.44
2022-10-25T11:59:48.824Z,94007.47
2022-10-25T12:00:51.115Z,94002.69
2022-10-25T12:02:11.857Z,94004.69
2022-10-25T12:03:20.586Z,94009.19
2022-10-25T12:04:48.249Z,94004.06
2022-10-25T12:06:03.487Z,94004.66
2022-10-25T12:07:17.859Z,94004.63